Airfield :
LOGIN :

Register | Disclaimer

   EN    FR    IT 

 










Legend :    VFR   Marginal VFR   IFR   Intensive IFR   Very Intensive IFR
Visi :
Ceiling :
>= 8 km
>= 3000ft
5 to 8 km
1000 to 3000 ft
1500m to 5 km
500 to 1000 ft
800 to 1500m
200 to 500 ft
< 800m
< 200 ft
Symbols :   Thunderstorms  Fog  Heavy snow  Heavy precipitations  Wind > 20 kt
SIGMETs :     Misc.  Thunderstorms  Icing  Turbulence  Mountain Waves  Volcanic Ashes






- Airport Elevation : 218 ft
- IATA code : LBG


LFPB - Paris / Le Bourget

CURRENT METAR :
  • 161830Z AUTO 01002KT CAVOK 18/13 Q1018 NOSIG

EXPIRED METARs :
  • 161800Z AUTO 36004KT 330V030 CAVOK 19/12 Q1018 NOSIG
  • 161730Z AUTO 36003KT CAVOK 20/12 Q1018 NOSIG
  • 161700Z AUTO 01004KT CAVOK 21/12 Q1018 NOSIG
  • 161630Z AUTO 03005KT CAVOK 21/12 Q1018 NOSIG
  • 161600Z AUTO 01005KT 310V050 9999 FEW038 OVC052 21/12 Q1018 NOSIG

TAF TAF LFPB
Valid from the 16 at 18:00 until the 17 at 18:00 UTC


161700Z 1618/1718 VRB03KT CAVOK
PROB30
TEMPO 1705/1706 4000 BR NSC
BECMG 1710/1712 14005KT
ATIS : +33 1 48 62 43 92



MET'MAP, your aeronautical weather chart ! - Copyright ORBIFLY December 2007 - Disclaimer

ORBIFLY MET'MAP TEAM :

Programming & Development : Alexandra Zaïnal
Concept & original design : Baudouin d'Aumeries
Assistance for programming : Marc-Olivier Méhu
Technical & hardware support : Manuel Goepfert

Contact : metmap@orbifly.com




SOURCES & CREDITS :

   NOAA